sensor_id;sensor_type;location;lat;lon;timestamp;temperature;humidity
4584;DHT22;2304;47.606;12.186;2022-12-18T00:04:19;-1.40;63.40
4584;DHT22;2304;47.606;12.186;2022-12-18T00:09:23;-1.40;63.00
4584;DHT22;2304;47.606;12.186;2022-12-18T00:14:25;-1.40;62.90
4584;DHT22;2304;47.606;12.186;2022-12-18T00:19:27;-1.50;62.80
4584;DHT22;2304;47.606;12.186;2022-12-18T00:24:30;-1.50;63.60
4584;DHT22;2304;47.606;12.186;2022-12-18T00:29:32;-1.60;63.10
4584;DHT22;2304;47.606;12.186;2022-12-18T00:34:34;-1.70;63.00
4584;DHT22;2304;47.606;12.186;2022-12-18T00:39:37;-1.80;64.70
4584;DHT22;2304;47.606;12.186;2022-12-18T00:44:39;-1.80;64.40
4584;DHT22;2304;47.606;12.186;2022-12-18T00:49:41;-1.80;63.70
4584;DHT22;2304;47.606;12.186;2022-12-18T00:54:44;-1.80;63.40
4584;DHT22;2304;47.606;12.186;2022-12-18T00:59:46;-1.80;63.60
4584;DHT22;2304;47.606;12.186;2022-12-18T01:04:47;-1.80;63.20
4584;DHT22;2304;47.606;12.186;2022-12-18T01:09:51;-1.80;63.10
4584;DHT22;2304;47.606;12.186;2022-12-18T01:14:52;-1.80;64.20
4584;DHT22;2304;47.606;12.186;2022-12-18T01:19:54;-1.80;63.90
4584;DHT22;2304;47.606;12.186;2022-12-18T01:24:57;-1.80;63.90
4584;DHT22;2304;47.606;12.186;2022-12-18T01:29:59;-1.80;63.90
4584;DHT22;2304;47.606;12.186;2022-12-18T01:35:01;-1.80;64.10
4584;DHT22;2304;47.606;12.186;2022-12-18T01:40:06;-2.00;63.00
4584;DHT22;2304;47.606;12.186;2022-12-18T01:45:24;-1.90;64.10
4584;DHT22;2304;47.606;12.186;2022-12-18T01:50:29;-1.90;64.40
4584;DHT22;2304;47.606;12.186;2022-12-18T01:55:37;-1.90;63.80
4584;DHT22;2304;47.606;12.186;2022-12-18T02:00:40;-2.00;63.00
4584;DHT22;2304;47.606;12.186;2022-12-18T02:05:45;-2.20;64.50
4584;DHT22;2304;47.606;12.186;2022-12-18T02:10:55;-2.20;65.30
4584;DHT22;2304;47.606;12.186;2022-12-18T02:16:04;-2.40;65.30
4584;DHT22;2304;47.606;12.186;2022-12-18T02:21:13;-2.40;65.80
4584;DHT22;2304;47.606;12.186;2022-12-18T02:26:27;-2.60;65.10
4584;DHT22;2304;47.606;12.186;2022-12-18T02:31:36;-2.60;67.10
4584;DHT22;2304;47.606;12.186;2022-12-18T02:36:42;-2.50;67.80
4584;DHT22;2304;47.606;12.186;2022-12-18T02:41:47;-2.40;67.50
4584;DHT22;2304;47.606;12.186;2022-12-18T02:46:51;-2.50;67.00
4584;DHT22;2304;47.606;12.186;2022-12-18T02:51:58;-2.60;67.10
4584;DHT22;2304;47.606;12.186;2022-12-18T02:57:26;-2.80;67.10
4584;DHT22;2304;47.606;12.186;2022-12-18T03:02:36;-2.90;67.60
4584;DHT22;2304;47.606;12.186;2022-12-18T03:07:46;-3.00;67.90
4584;DHT22;2304;47.606;12.186;2022-12-18T03:12:54;-3.00;68.30
4584;DHT22;2304;47.606;12.186;2022-12-18T03:18:04;-3.00;68.50
4584;DHT22;2304;47.606;12.186;2022-12-18T03:23:09;-3.00;68.20
4584;DHT22;2304;47.606;12.186;2022-12-18T03:28:16;-2.90;68.40
4584;DHT22;2304;47.606;12.186;2022-12-18T03:33:25;-2.90;67.20
4584;DHT22;2304;47.606;12.186;2022-12-18T03:38:29;-3.00;68.40
4584;DHT22;2304;47.606;12.186;2022-12-18T03:43:43;-3.20;68.20
4584;DHT22;2304;47.606;12.186;2022-12-18T03:48:54;-3.10;68.80
4584;DHT22;2304;47.606;12.186;2022-12-18T03:53:58;-3.00;69.00
4584;DHT22;2304;47.606;12.186;2022-12-18T03:59:04;-3.00;69.10
4584;DHT22;2304;47.606;12.186;2022-12-18T04:04:08;-3.10;68.40
4584;DHT22;2304;47.606;12.186;2022-12-18T04:09:12;-3.20;67.90
4584;DHT22;2304;47.606;12.186;2022-12-18T04:14:15;-3.30;68.90
4584;DHT22;2304;47.606;12.186;2022-12-18T04:19:17;-3.10;68.60
4584;DHT22;2304;47.606;12.186;2022-12-18T04:24:19;-3.30;68.80
4584;DHT22;2304;47.606;12.186;2022-12-18T04:29:22;-3.30;68.50
4584;DHT22;2304;47.606;12.186;2022-12-18T04:34:24;-3.30;68.40
4584;DHT22;2304;47.606;12.186;2022-12-18T04:39:26;-3.30;68.40
4584;DHT22;2304;47.606;12.186;2022-12-18T04:44:29;-3.30;68.50
4584;DHT22;2304;47.606;12.186;2022-12-18T04:49:31;-3.30;68.80
4584;DHT22;2304;47.606;12.186;2022-12-18T04:54:32;-3.20;68.80
4584;DHT22;2304;47.606;12.186;2022-12-18T04:59:36;-3.40;68.10
4584;DHT22;2304;47.606;12.186;2022-12-18T05:04:38;-3.40;68.50
4584;DHT22;2304;47.606;12.186;2022-12-18T05:09:40;-3.30;69.20
4584;DHT22;2304;47.606;12.186;2022-12-18T05:14:43;-3.30;68.80
4584;DHT22;2304;47.606;12.186;2022-12-18T05:19:45;-3.40;68.20
4584;DHT22;2304;47.606;12.186;2022-12-18T05:24:47;-3.40;68.10
4584;DHT22;2304;47.606;12.186;2022-12-18T05:29:50;-3.40;68.10
4584;DHT22;2304;47.606;12.186;2022-12-18T05:34:52;-3.40;68.10
4584;DHT22;2304;47.606;12.186;2022-12-18T05:39:54;-3.50;68.10
4584;DHT22;2304;47.606;12.186;2022-12-18T05:44:57;-3.60;68.40
4584;DHT22;2304;47.606;12.186;2022-12-18T05:49:59;-3.50;69.00
4584;DHT22;2304;47.606;12.186;2022-12-18T05:55:01;-3.50;69.20
4584;DHT22;2304;47.606;12.186;2022-12-18T06:00:05;-3.70;70.20
4584;DHT22;2304;47.606;12.186;2022-12-18T06:05:08;-3.60;70.20
4584;DHT22;2304;47.606;12.186;2022-12-18T06:10:10;-3.50;69.40
4584;DHT22;2304;47.606;12.186;2022-12-18T06:15:13;-3.50;69.80
4584;DHT22;2304;47.606;12.186;2022-12-18T06:20:15;-3.50;68.90
4584;DHT22;2304;47.606;12.186;2022-12-18T06:25:17;-3.50;68.50
4584;DHT22;2304;47.606;12.186;2022-12-18T06:30:21;-3.60;68.00
4584;DHT22;2304;47.606;12.186;2022-12-18T06:35:23;-3.60;67.80
4584;DHT22;2304;47.606;12.186;2022-12-18T06:40:25;-3.60;67.70
4584;DHT22;2304;47.606;12.186;2022-12-18T06:45:28;-3.60;67.90
4584;DHT22;2304;47.606;12.186;2022-12-18T06:50:29;-3.60;67.80
4584;DHT22;2304;47.606;12.186;2022-12-18T06:55:31;-3.70;68.00
4584;DHT22;2304;47.606;12.186;2022-12-18T07:00:34;-3.70;68.60
4584;DHT22;2304;47.606;12.186;2022-12-18T07:05:39;-3.70;68.40
4584;DHT22;2304;47.606;12.186;2022-12-18T07:10:42;-3.70;68.40
4584;DHT22;2304;47.606;12.186;2022-12-18T07:15:45;-3.60;68.20
4584;DHT22;2304;47.606;12.186;2022-12-18T07:20:47;-3.70;68.10
4584;DHT22;2304;47.606;12.186;2022-12-18T07:25:48;-3.60;68.60
4584;DHT22;2304;47.606;12.186;2022-12-18T07:30:52;-3.60;68.10
4584;DHT22;2304;47.606;12.186;2022-12-18T07:35:54;-3.60;67.60
4584;DHT22;2304;47.606;12.186;2022-12-18T07:41:00;-3.60;68.10
4584;DHT22;2304;47.606;12.186;2022-12-18T07:46:03;-3.50;68.00
4584;DHT22;2304;47.606;12.186;2022-12-18T07:51:06;-3.50;67.90
4584;DHT22;2304;47.606;12.186;2022-12-18T07:56:10;-3.50;67.50
4584;DHT22;2304;47.606;12.186;2022-12-18T08:01:13;-3.40;67.30
4584;DHT22;2304;47.606;12.186;2022-12-18T08:06:16;-3.40;67.30
4584;DHT22;2304;47.606;12.186;2022-12-18T08:11:17;-3.50;68.00
4584;DHT22;2304;47.606;12.186;2022-12-18T08:16:22;-3.40;67.70
4584;DHT22;2304;47.606;12.186;2022-12-18T08:21:26;-3.30;67.50
4584;DHT22;2304;47.606;12.186;2022-12-18T08:26:30;-3.30;66.80
4584;DHT22;2304;47.606;12.186;2022-12-18T08:31:34;-3.40;66.30
4584;DHT22;2304;47.606;12.186;2022-12-18T08:36:35;-3.50;66.10
4584;DHT22;2304;47.606;12.186;2022-12-18T08:41:37;-3.70;65.70
4584;DHT22;2304;47.606;12.186;2022-12-18T08:46:42;-3.60;64.80
4584;DHT22;2304;47.606;12.186;2022-12-18T08:51:44;-3.60;65.20
4584;DHT22;2304;47.606;12.186;2022-12-18T08:56:46;-2.90;67.10
4584;DHT22;2304;47.606;12.186;2022-12-18T09:01:49;-2.20;65.50
4584;DHT22;2304;47.606;12.186;2022-12-18T09:06:51;-1.20;65.10
4584;DHT22;2304;47.606;12.186;2022-12-18T09:11:53;-0.40;62.80
4584;DHT22;2304;47.606;12.186;2022-12-18T09:16:56;-0.20;59.80
4584;DHT22;2304;47.606;12.186;2022-12-18T09:21:58;0.00;58.30
4584;DHT22;2304;47.606;12.186;2022-12-18T09:27:00;0.30;57.70
4584;DHT22;2304;47.606;12.186;2022-12-18T09:32:03;0.60;57.00
4584;DHT22;2304;47.606;12.186;2022-12-18T09:37:05;0.80;56.00
4584;DHT22;2304;47.606;12.186;2022-12-18T09:42:16;0.80;56.70
4584;DHT22;2304;47.606;12.186;2022-12-18T09:47:24;1.00;56.30
4584;DHT22;2304;47.606;12.186;2022-12-18T09:52:30;1.30;56.00
4584;DHT22;2304;47.606;12.186;2022-12-18T09:57:39;1.60;56.00
4584;DHT22;2304;47.606;12.186;2022-12-18T10:02:43;1.60;55.80
4584;DHT22;2304;47.606;12.186;2022-12-18T10:07:53;1.60;55.30
4584;DHT22;2304;47.606;12.186;2022-12-18T10:13:02;1.80;54.80
4584;DHT22;2304;47.606;12.186;2022-12-18T10:18:17;2.10;55.50
4584;DHT22;2304;47.606;12.186;2022-12-18T10:23:26;2.50;54.50
4584;DHT22;2304;47.606;12.186;2022-12-18T10:28:30;2.80;53.50
4584;DHT22;2304;47.606;12.186;2022-12-18T10:33:33;2.80;53.20
4584;DHT22;2304;47.606;12.186;2022-12-18T10:38:36;2.90;53.70
4584;DHT22;2304;47.606;12.186;2022-12-18T10:43:39;3.10;52.90
4584;DHT22;2304;47.606;12.186;2022-12-18T10:48:50;3.40;52.70
4584;DHT22;2304;47.606;12.186;2022-12-18T10:53:56;3.50;52.60
4584;DHT22;2304;47.606;12.186;2022-12-18T10:59:00;3.90;52.10
4584;DHT22;2304;47.606;12.186;2022-12-18T11:04:08;4.30;51.50
4584;DHT22;2304;47.606;12.186;2022-12-18T11:09:20;4.30;50.80
4584;DHT22;2304;47.606;12.186;2022-12-18T11:14:24;4.30;50.30
4584;DHT22;2304;47.606;12.186;2022-12-18T11:19:32;4.50;51.50
4584;DHT22;2304;47.606;12.186;2022-12-18T11:24:35;4.80;49.70
4584;DHT22;2304;47.606;12.186;2022-12-18T11:29:39;5.00;48.90
4584;DHT22;2304;47.606;12.186;2022-12-18T11:34:46;4.90;48.50
4584;DHT22;2304;47.606;12.186;2022-12-18T11:39:52;4.90;48.30
4584;DHT22;2304;47.606;12.186;2022-12-18T11:45:00;4.90;48.50
4584;DHT22;2304;47.606;12.186;2022-12-18T11:50:12;5.20;49.10
4584;DHT22;2304;47.606;12.186;2022-12-18T11:55:20;5.40;48.20
4584;DHT22;2304;47.606;12.186;2022-12-18T12:00:26;5.10;47.90
4584;DHT22;2304;47.606;12.186;2022-12-18T12:05:37;5.30;48.50
4584;DHT22;2304;47.606;12.186;2022-12-18T12:10:50;5.50;48.10
4584;DHT22;2304;47.606;12.186;2022-12-18T12:16:05;5.30;48.20
4584;DHT22;2304;47.606;12.186;2022-12-18T12:21:16;5.30;48.60
4584;DHT22;2304;47.606;12.186;2022-12-18T12:26:27;5.20;48.20
4584;DHT22;2304;47.606;12.186;2022-12-18T12:31:44;5.10;49.60
4584;DHT22;2304;47.606;12.186;2022-12-18T12:37:00;4.50;49.00
4584;DHT22;2304;47.606;12.186;2022-12-18T12:42:05;4.80;48.80
4584;DHT22;2304;47.606;12.186;2022-12-18T12:47:28;4.80;48.60
4584;DHT22;2304;47.606;12.186;2022-12-18T12:52:35;5.00;48.80
4584;DHT22;2304;47.606;12.186;2022-12-18T12:57:43;5.20;48.50
4584;DHT22;2304;47.606;12.186;2022-12-18T13:02:50;5.40;49.10
4584;DHT22;2304;47.606;12.186;2022-12-18T13:07:57;5.50;47.80
4584;DHT22;2304;47.606;12.186;2022-12-18T13:13:02;5.50;48.10
4584;DHT22;2304;47.606;12.186;2022-12-18T13:18:12;5.50;48.20
4584;DHT22;2304;47.606;12.186;2022-12-18T13:23:34;5.50;48.40
4584;DHT22;2304;47.606;12.186;2022-12-18T13:28:51;5.50;48.80
4584;DHT22;2304;47.606;12.186;2022-12-18T13:34:14;5.70;49.10
4584;DHT22;2304;47.606;12.186;2022-12-18T13:39:33;5.50;48.30
4584;DHT22;2304;47.606;12.186;2022-12-18T13:44:36;5.90;48.60
4584;DHT22;2304;47.606;12.186;2022-12-18T13:49:42;5.80;48.00
4584;DHT22;2304;47.606;12.186;2022-12-18T13:54:49;5.80;47.70
4584;DHT22;2304;47.606;12.186;2022-12-18T13:59:52;5.80;47.90
4584;DHT22;2304;47.606;12.186;2022-12-18T14:04:55;6.30;47.90
4584;DHT22;2304;47.606;12.186;2022-12-18T14:09:59;6.10;47.50
4584;DHT22;2304;47.606;12.186;2022-12-18T14:15:01;5.70;48.20
4584;DHT22;2304;47.606;12.186;2022-12-18T14:20:04;5.40;48.90
4584;DHT22;2304;47.606;12.186;2022-12-18T14:25:18;5.20;49.50
4584;DHT22;2304;47.606;12.186;2022-12-18T14:30:28;4.70;50.40
4584;DHT22;2304;47.606;12.186;2022-12-18T14:35:31;4.40;50.70
4584;DHT22;2304;47.606;12.186;2022-12-18T14:40:34;4.20;52.60
4584;DHT22;2304;47.606;12.186;2022-12-18T14:45:37;4.00;52.90
4584;DHT22;2304;47.606;12.186;2022-12-18T14:50:41;3.70;54.40
4584;DHT22;2304;47.606;12.186;2022-12-18T14:55:46;3.40;54.40
4584;DHT22;2304;47.606;12.186;2022-12-18T15:00:49;3.30;54.60
4584;DHT22;2304;47.606;12.186;2022-12-18T15:05:51;3.10;54.60
4584;DHT22;2304;47.606;12.186;2022-12-18T15:10:54;2.90;55.70
4584;DHT22;2304;47.606;12.186;2022-12-18T15:15:59;2.60;56.70
4584;DHT22;2304;47.606;12.186;2022-12-18T15:21:09;2.60;57.40
4584;DHT22;2304;47.606;12.186;2022-12-18T15:26:14;2.40;57.30
4584;DHT22;2304;47.606;12.186;2022-12-18T15:31:30;2.10;57.80
4584;DHT22;2304;47.606;12.186;2022-12-18T15:36:32;2.10;58.00
4584;DHT22;2304;47.606;12.186;2022-12-18T15:41:38;2.00;58.50
4584;DHT22;2304;47.606;12.186;2022-12-18T15:46:39;1.90;59.30
4584;DHT22;2304;47.606;12.186;2022-12-18T15:51:41;1.80;59.80
4584;DHT22;2304;47.606;12.186;2022-12-18T15:56:44;1.70;60.60
4584;DHT22;2304;47.606;12.186;2022-12-18T16:02:13;1.60;61.30
4584;DHT22;2304;47.606;12.186;2022-12-18T16:07:17;1.60;60.90
4584;DHT22;2304;47.606;12.186;2022-12-18T16:12:21;1.40;61.20
4584;DHT22;2304;47.606;12.186;2022-12-18T16:17:24;1.30;62.90
4584;DHT22;2304;47.606;12.186;2022-12-18T16:22:29;1.20;63.50
4584;DHT22;2304;47.606;12.186;2022-12-18T16:27:33;1.20;63.20
4584;DHT22;2304;47.606;12.186;2022-12-18T16:32:34;1.20;62.80
4584;DHT22;2304;47.606;12.186;2022-12-18T16:37:36;1.20;63.10
4584;DHT22;2304;47.606;12.186;2022-12-18T16:42:41;1.20;63.50
4584;DHT22;2304;47.606;12.186;2022-12-18T16:47:44;1.00;63.90
4584;DHT22;2304;47.606;12.186;2022-12-18T16:52:46;0.90;64.30
4584;DHT22;2304;47.606;12.186;2022-12-18T16:57:49;0.70;65.00
4584;DHT22;2304;47.606;12.186;2022-12-18T17:02:51;0.60;65.40
4584;DHT22;2304;47.606;12.186;2022-12-18T17:07:54;0.60;65.30
4584;DHT22;2304;47.606;12.186;2022-12-18T17:12:57;0.60;65.50
4584;DHT22;2304;47.606;12.186;2022-12-18T17:17:59;0.60;65.80
4584;DHT22;2304;47.606;12.186;2022-12-18T17:23:01;0.60;66.40
4584;DHT22;2304;47.606;12.186;2022-12-18T17:28:04;0.40;65.70
4584;DHT22;2304;47.606;12.186;2022-12-18T17:33:06;0.40;66.10
4584;DHT22;2304;47.606;12.186;2022-12-18T17:38:08;0.40;66.10
4584;DHT22;2304;47.606;12.186;2022-12-18T17:43:11;0.40;66.30
4584;DHT22;2304;47.606;12.186;2022-12-18T17:48:13;0.30;66.70
4584;DHT22;2304;47.606;12.186;2022-12-18T17:53:15;0.30;66.40
4584;DHT22;2304;47.606;12.186;2022-12-18T17:58:18;0.20;66.50
4584;DHT22;2304;47.606;12.186;2022-12-18T18:03:20;0.00;67.00
4584;DHT22;2304;47.606;12.186;2022-12-18T18:08:22;-0.10;67.80
4584;DHT22;2304;47.606;12.186;2022-12-18T18:13:25;-0.10;68.20
4584;DHT22;2304;47.606;12.186;2022-12-18T18:18:50;-0.20;69.00
4584;DHT22;2304;47.606;12.186;2022-12-18T18:23:52;-0.10;68.50
4584;DHT22;2304;47.606;12.186;2022-12-18T18:28:56;-0.10;68.30
4584;DHT22;2304;47.606;12.186;2022-12-18T18:33:57;-0.10;68.80
4584;DHT22;2304;47.606;12.186;2022-12-18T18:38:59;-0.10;68.80
4584;DHT22;2304;47.606;12.186;2022-12-18T18:44:03;-0.20;68.50
4584;DHT22;2304;47.606;12.186;2022-12-18T18:49:05;-0.30;69.00
4584;DHT22;2304;47.606;12.186;2022-12-18T18:54:07;-0.30;69.30
4584;DHT22;2304;47.606;12.186;2022-12-18T18:59:11;-0.40;69.20
4584;DHT22;2304;47.606;12.186;2022-12-18T19:04:13;-0.40;69.40
4584;DHT22;2304;47.606;12.186;2022-12-18T19:09:15;-0.40;69.00
4584;DHT22;2304;47.606;12.186;2022-12-18T19:14:18;-0.50;69.50
4584;DHT22;2304;47.606;12.186;2022-12-18T19:19:20;-0.50;69.80
4584;DHT22;2304;47.606;12.186;2022-12-18T19:24:22;-0.60;69.50
4584;DHT22;2304;47.606;12.186;2022-12-18T19:29:26;-0.60;69.90
4584;DHT22;2304;47.606;12.186;2022-12-18T19:34:28;-0.70;70.20
4584;DHT22;2304;47.606;12.186;2022-12-18T19:39:30;-0.70;71.20
4584;DHT22;2304;47.606;12.186;2022-12-18T19:44:33;-0.80;70.90
4584;DHT22;2304;47.606;12.186;2022-12-18T19:49:35;-0.70;70.70
4584;DHT22;2304;47.606;12.186;2022-12-18T19:54:38;-0.70;70.60
4584;DHT22;2304;47.606;12.186;2022-12-18T19:59:41;-0.70;70.50
4584;DHT22;2304;47.606;12.186;2022-12-18T20:04:43;-0.80;70.40
4584;DHT22;2304;47.606;12.186;2022-12-18T20:09:45;-0.80;70.60
4584;DHT22;2304;47.606;12.186;2022-12-18T20:14:48;-0.90;71.00
4584;DHT22;2304;47.606;12.186;2022-12-18T20:19:50;-0.90;71.30
4584;DHT22;2304;47.606;12.186;2022-12-18T20:24:52;-0.90;71.50
4584;DHT22;2304;47.606;12.186;2022-12-18T20:29:55;-1.00;71.30
4584;DHT22;2304;47.606;12.186;2022-12-18T20:34:57;-0.90;72.00
4584;DHT22;2304;47.606;12.186;2022-12-18T20:39:59;-1.00;71.80
4584;DHT22;2304;47.606;12.186;2022-12-18T20:45:02;-1.00;71.80
4584;DHT22;2304;47.606;12.186;2022-12-18T20:50:05;-1.10;71.70
4584;DHT22;2304;47.606;12.186;2022-12-18T20:55:07;-1.10;72.00
4584;DHT22;2304;47.606;12.186;2022-12-18T21:00:12;-1.00;71.60
4584;DHT22;2304;47.606;12.186;2022-12-18T21:05:14;-1.00;71.80
4584;DHT22;2304;47.606;12.186;2022-12-18T21:10:16;-1.00;71.90
4584;DHT22;2304;47.606;12.186;2022-12-18T21:15:22;-1.10;72.50
4584;DHT22;2304;47.606;12.186;2022-12-18T21:20:24;-1.00;73.00
4584;DHT22;2304;47.606;12.186;2022-12-18T21:25:26;-1.00;72.50
4584;DHT22;2304;47.606;12.186;2022-12-18T21:30:29;-1.00;72.70
4584;DHT22;2304;47.606;12.186;2022-12-18T21:35:31;-1.00;72.60
4584;DHT22;2304;47.606;12.186;2022-12-18T21:40:33;-1.00;72.60
4584;DHT22;2304;47.606;12.186;2022-12-18T21:45:36;-1.10;72.50
4584;DHT22;2304;47.606;12.186;2022-12-18T21:50:38;-0.90;73.10
4584;DHT22;2304;47.606;12.186;2022-12-18T21:55:40;-0.90;73.70
4584;DHT22;2304;47.606;12.186;2022-12-18T22:00:43;-1.00;73.90
4584;DHT22;2304;47.606;12.186;2022-12-18T22:05:45;-0.80;73.80
4584;DHT22;2304;47.606;12.186;2022-12-18T22:10:46;-0.80;73.20
4584;DHT22;2304;47.606;12.186;2022-12-18T22:15:50;-0.70;73.30
4584;DHT22;2304;47.606;12.186;2022-12-18T22:20:59;-0.80;73.10
4584;DHT22;2304;47.606;12.186;2022-12-18T22:26:01;-0.70;72.70
4584;DHT22;2304;47.606;12.186;2022-12-18T22:31:05;-0.70;72.50
4584;DHT22;2304;47.606;12.186;2022-12-18T22:36:07;-0.70;72.70
4584;DHT22;2304;47.606;12.186;2022-12-18T22:41:09;-0.70;72.70
4584;DHT22;2304;47.606;12.186;2022-12-18T22:46:14;-0.70;72.10
4584;DHT22;2304;47.606;12.186;2022-12-18T22:51:20;-0.80;72.00
4584;DHT22;2304;47.606;12.186;2022-12-18T22:56:22;-0.80;72.60
4584;DHT22;2304;47.606;12.186;2022-12-18T23:01:28;-0.80;72.60
4584;DHT22;2304;47.606;12.186;2022-12-18T23:06:30;-0.70;74.20
4584;DHT22;2304;47.606;12.186;2022-12-18T23:11:32;-0.70;74.10
4584;DHT22;2304;47.606;12.186;2022-12-18T23:16:35;-0.60;74.20
4584;DHT22;2304;47.606;12.186;2022-12-18T23:21:37;-0.60;73.80
4584;DHT22;2304;47.606;12.186;2022-12-18T23:26:39;-0.50;73.60
4584;DHT22;2304;47.606;12.186;2022-12-18T23:31:42;-0.50;73.40
4584;DHT22;2304;47.606;12.186;2022-12-18T23:36:44;-0.40;73.50
4584;DHT22;2304;47.606;12.186;2022-12-18T23:41:46;-0.50;73.80
4584;DHT22;2304;47.606;12.186;2022-12-18T23:46:49;-0.50;73.80
4584;DHT22;2304;47.606;12.186;2022-12-18T23:51:53;-0.40;73.80
4584;DHT22;2304;47.606;12.186;2022-12-18T23:56:54;-0.30;73.50
